Time;durP1;ratioP1;P1;durP2;ratioP2;P2;SDS_P1;SDS_P2;PMS_P1;PMS_P2;Temp;Humidity;BMP_temperature;BMP_pressure;BME280_temperature;BME280_humidity;BME280_pressure;Samples;Min_cycle;Max_cycle;Signal;HPM_P1;HPM_P2
2021/06/26 00:01:05;;;;;;;19.97;18.03;;;16.30;99.90;;;;;;5053855;28;20175;-72
2021/06/26 00:03:32;;;;;;;18.70;17.00;;;16.30;99.90;;;;;;5053977;28;20194;-72
2021/06/26 00:05:58;;;;;;;19.63;17.47;;;16.20;99.90;;;;;;5053634;28;20199;-72
2021/06/26 00:08:25;;;;;;;17.90;16.27;;;16.20;99.90;;;;;;5053818;28;20488;-72
2021/06/26 00:10:51;;;;;;;19.60;17.80;;;16.20;99.90;;;;;;5053963;28;20494;-72
2021/06/26 00:13:17;;;;;;;17.97;16.33;;;16.20;99.90;;;;;;5053689;28;20434;-72
2021/06/26 00:15:43;;;;;;;19.37;16.97;;;16.20;99.90;;;;;;5053568;28;20426;-72
2021/06/26 00:18:10;;;;;;;20.90;18.80;;;16.20;99.90;;;;;;5053966;28;20489;-72
2021/06/26 00:20:35;;;;;;;20.40;18.40;;;16.10;99.90;;;;;;5053739;28;20804;-72
2021/06/26 00:23:01;;;;;;;19.53;17.60;;;16.10;99.90;;;;;;5053803;28;20409;-72
2021/06/26 00:25:26;;;;;;;21.40;19.17;;;16.10;99.90;;;;;;5053622;28;20194;-72
2021/06/26 00:27:52;;;;;;;19.97;17.17;;;16.10;99.90;;;;;;5053517;28;20247;-72
2021/06/26 00:30:19;;;;;;;20.80;18.43;;;16.10;99.90;;;;;;5053418;28;20565;-72
2021/06/26 00:32:45;;;;;;;20.90;18.83;;;16.10;99.90;;;;;;5053152;28;20422;-72
2021/06/26 00:35:11;;;;;;;20.17;18.13;;;16.10;99.90;;;;;;5053428;28;20401;-72
2021/06/26 00:37:37;;;;;;;20.17;18.27;;;16.10;99.90;;;;;;5053333;28;20409;-72
2021/06/26 00:40:05;;;;;;;20.60;18.60;;;16.00;99.90;;;;;;5053554;28;20406;-72
2021/06/26 00:42:31;;;;;;;21.30;19.20;;;16.00;99.90;;;;;;5059816;28;20425;-72
2021/06/26 00:44:58;;;;;;;22.80;20.50;;;16.00;99.90;;;;;;5052902;28;20841;-72
2021/06/26 00:47:23;;;;;;;19.27;17.40;;;15.90;99.90;;;;;;5053094;28;20397;-72
2021/06/26 00:49:49;;;;;;;22.93;18.93;;;15.90;99.90;;;;;;5052318;28;20416;-72
2021/06/26 00:52:15;;;;;;;20.77;17.90;;;15.90;99.90;;;;;;5052864;28;20208;-72
2021/06/26 00:54:40;;;;;;;20.10;18.20;;;15.90;99.90;;;;;;5053365;28;20213;-72
2021/06/26 00:57:06;;;;;;;21.90;19.57;;;15.90;99.90;;;;;;5052777;28;20165;-72
2021/06/26 00:59:33;;;;;;;20.43;18.53;;;15.90;99.90;;;;;;5052660;28;20194;-72
2021/06/26 01:01:58;;;;;;;22.50;19.57;;;15.90;99.90;;;;;;5052673;28;20704;-72
2021/06/26 01:04:24;;;;;;;20.67;18.57;;;15.80;99.90;;;;;;5052667;28;20391;-72
2021/06/26 01:06:49;;;;;;;20.47;18.40;;;15.80;99.90;;;;;;5052648;28;20206;-72
2021/06/26 01:09:15;;;;;;;21.33;19.33;;;15.80;99.90;;;;;;5053220;28;20634;-72
2021/06/26 01:11:41;;;;;;;21.57;19.43;;;15.80;99.90;;;;;;5052679;28;20181;-72
2021/06/26 01:14:06;;;;;;;22.27;20.00;;;15.70;99.90;;;;;;5052710;28;20162;-72
2021/06/26 01:16:32;;;;;;;22.67;20.27;;;15.70;99.90;;;;;;5052839;28;20162;-72
2021/06/26 01:18:57;;;;;;;20.93;18.83;;;15.70;99.90;;;;;;5052571;28;20201;-72
2021/06/26 01:21:23;;;;;;;21.83;19.53;;;15.60;99.90;;;;;;5052529;28;20177;-72
2021/06/26 01:23:52;;;;;;;23.30;21.00;;;15.60;99.90;;;;;;5052466;28;20186;-72
2021/06/26 01:26:18;;;;;;;26.60;23.93;;;15.60;99.90;;;;;;5052229;28;20510;-72
2021/06/26 01:28:43;;;;;;;24.27;21.87;;;15.60;99.90;;;;;;5052383;28;20940;-72
2021/06/26 01:31:09;;;;;;;24.20;21.90;;;15.50;99.90;;;;;;5052400;28;20387;-72
2021/06/26 01:33:35;;;;;;;25.47;22.93;;;15.50;99.90;;;;;;5052562;28;20286;-72
2021/06/26 01:36:01;;;;;;;25.10;22.50;;;15.50;99.90;;;;;;5052465;28;20163;-72
2021/06/26 01:38:27;;;;;;;24.40;21.90;;;15.50;99.90;;;;;;5052446;28;20641;-72
2021/06/26 01:40:53;;;;;;;25.30;22.80;;;15.50;99.90;;;;;;5052883;28;20410;-72
2021/06/26 01:43:19;;;;;;;25.43;23.00;;;15.50;99.90;;;;;;5072195;28;20645;-72
2021/06/26 01:45:44;;;;;;;25.40;22.80;;;15.50;99.90;;;;;;5063866;28;20196;-72
2021/06/26 01:48:10;;;;;;;26.27;23.57;;;15.40;99.90;;;;;;5052312;28;20209;-72
2021/06/26 01:50:36;;;;;;;27.40;24.60;;;15.50;99.90;;;;;;5052292;28;20161;-72
2021/06/26 01:53:01;;;;;;;25.93;23.30;;;15.50;99.90;;;;;;5052075;28;20161;-72
2021/06/26 01:55:28;;;;;;;24.60;22.23;;;15.50;99.90;;;;;;5051992;28;20400;-72
2021/06/26 01:57:54;;;;;;;26.67;23.90;;;15.40;99.90;;;;;;5052245;28;20240;-72
2021/06/26 02:00:22;;;;;;;27.10;21.33;;;15.40;99.90;;;;;;5052046;28;20467;-72
2021/06/26 02:02:48;;;;;;;25.57;22.97;;;15.40;99.90;;;;;;5051840;28;20425;-72
2021/06/26 02:05:17;;;;;;;26.47;23.87;;;15.40;99.90;;;;;;5051853;28;20476;-72
2021/06/26 02:07:44;;;;;;;28.40;25.40;;;15.40;99.90;;;;;;5051939;28;20756;-72
2021/06/26 02:10:11;;;;;;;26.37;23.53;;;15.40;99.90;;;;;;5051707;28;20422;-72
2021/06/26 02:12:36;;;;;;;28.13;23.90;;;15.30;99.90;;;;;;5051784;28;20433;-72
2021/06/26 02:15:03;;;;;;;29.60;26.60;;;15.40;99.90;;;;;;5051771;28;20423;-72
2021/06/26 02:17:28;;;;;;;27.13;24.23;;;15.30;99.90;;;;;;5051819;28;20569;-72
2021/06/26 02:19:54;;;;;;;24.53;22.03;;;15.30;99.90;;;;;;5051908;28;20397;-72
2021/06/26 02:22:19;;;;;;;26.97;24.37;;;15.30;99.90;;;;;;5052152;28;20165;-71
2021/06/26 02:24:45;;;;;;;25.20;22.63;;;15.30;99.90;;;;;;5052099;28;20237;-69
2021/06/26 02:27:11;;;;;;;22.10;19.77;;;15.30;99.90;;;;;;5051693;28;20193;-69
2021/06/26 02:29:36;;;;;;;24.30;21.70;;;15.30;99.90;;;;;;5051700;28;20167;-69
2021/06/26 02:32:03;;;;;;;23.57;21.23;;;15.20;99.90;;;;;;5051752;28;20189;-69
2021/06/26 02:34:29;;;;;;;25.87;23.47;;;15.20;99.90;;;;;;5051685;28;20172;-70
2021/06/26 02:36:54;;;;;;;24.13;21.90;;;15.20;99.90;;;;;;5051967;28;20394;-70
2021/06/26 02:39:20;;;;;;;25.87;23.07;;;15.10;99.90;;;;;;5051502;28;20253;-69
2021/06/26 02:41:46;;;;;;;22.60;20.20;;;15.10;99.90;;;;;;5059951;28;20178;-69
2021/06/26 02:44:11;;;;;;;24.27;21.83;;;15.10;99.90;;;;;;5071571;28;20161;-69
2021/06/26 02:46:37;;;;;;;24.37;21.93;;;15.00;99.90;;;;;;5056117;28;20197;-69
2021/06/26 02:49:03;;;;;;;25.43;22.27;;;15.00;99.90;;;;;;5051861;28;20192;-70
2021/06/26 02:51:29;;;;;;;25.37;22.77;;;15.00;99.90;;;;;;5052198;28;20162;-70
2021/06/26 02:53:55;;;;;;;26.70;23.90;;;15.00;99.90;;;;;;5051281;28;20528;-70
2021/06/26 02:56:21;;;;;;;25.60;23.07;;;15.00;99.90;;;;;;5051553;28;20601;-69
2021/06/26 02:58:46;;;;;;;23.53;21.30;;;14.90;99.90;;;;;;5051567;28;20223;-70
2021/06/26 03:01:12;;;;;;;26.80;23.90;;;14.90;99.90;;;;;;5051272;28;20479;-70
2021/06/26 03:03:37;;;;;;;22.83;20.57;;;14.90;99.90;;;;;;5051293;28;20524;-69
2021/06/26 03:06:03;;;;;;;24.70;22.20;;;14.90;99.90;;;;;;5051346;28;20292;-70
2021/06/26 03:08:28;;;;;;;24.67;22.37;;;14.90;99.90;;;;;;5051568;28;20183;-70
2021/06/26 03:10:54;;;;;;;26.73;24.23;;;14.90;99.90;;;;;;5051144;28;20180;-69
2021/06/26 03:13:20;;;;;;;23.77;21.33;;;14.90;99.90;;;;;;5053005;28;20595;-70
2021/06/26 03:15:45;;;;;;;24.70;22.30;;;14.90;99.90;;;;;;5054849;28;20212;-70
2021/06/26 03:18:12;;;;;;;25.97;23.13;;;14.80;99.90;;;;;;5054844;28;20155;-69
2021/06/26 03:20:37;;;;;;;24.83;22.40;;;14.80;99.90;;;;;;5055169;28;20163;-69
2021/06/26 03:23:03;;;;;;;25.87;23.37;;;14.80;99.90;;;;;;5054513;28;20424;-70
2021/06/26 03:25:28;;;;;;;26.97;24.27;;;14.80;99.90;;;;;;5054675;28;20279;-70
2021/06/26 03:27:54;;;;;;;26.93;24.17;;;14.80;99.90;;;;;;5054616;28;20162;-70
2021/06/26 03:30:20;;;;;;;29.50;23.33;;;14.80;99.90;;;;;;5054658;28;20528;-70
2021/06/26 03:32:45;;;;;;;27.73;25.10;;;14.80;99.90;;;;;;5054538;28;20165;-69
2021/06/26 03:35:11;;;;;;;26.03;23.30;;;14.80;99.90;;;;;;5054959;28;20165;-69
2021/06/26 03:37:37;;;;;;;30.80;24.67;;;14.80;99.90;;;;;;5054285;28;20252;-69
2021/06/26 03:40:04;;;;;;;26.03;23.17;;;14.80;99.90;;;;;;5054133;28;20443;-69
2021/06/26 03:42:29;;;;;;;25.13;22.73;;;14.80;99.90;;;;;;5068653;28;20632;-70
2021/06/26 03:44:55;;;;;;;27.03;24.37;;;14.80;99.90;;;;;;5073030;28;20476;-70
2021/06/26 03:47:20;;;;;;;25.17;22.53;;;14.80;99.90;;;;;;5054546;28;20662;-69
2021/06/26 03:49:46;;;;;;;26.00;23.50;;;14.80;99.90;;;;;;5054707;28;20151;-69
2021/06/26 03:52:11;;;;;;;25.20;22.50;;;14.80;99.90;;;;;;5054156;28;20571;-69
2021/06/26 03:54:37;;;;;;;25.70;23.13;;;14.80;99.90;;;;;;5054195;28;20616;-70
2021/06/26 03:57:03;;;;;;;25.77;23.07;;;14.80;99.90;;;;;;5053918;28;20218;-70
2021/06/26 03:59:29;;;;;;;29.33;23.83;;;14.90;99.90;;;;;;5053964;28;20670;-69
2021/06/26 04:01:55;;;;;;;24.97;22.37;;;14.90;99.90;;;;;;5053962;28;20413;-69
2021/06/26 04:04:20;;;;;;;24.90;22.30;;;14.90;99.90;;;;;;5054328;28;20226;-69
2021/06/26 04:06:47;;;;;;;29.83;26.87;;;14.90;99.90;;;;;;5053745;28;20190;-70
2021/06/26 04:09:13;;;;;;;26.17;23.37;;;14.90;99.90;;;;;;5053927;28;20243;-69
2021/06/26 04:11:39;;;;;;;27.53;24.63;;;15.00;99.90;;;;;;5053821;28;20387;-70
2021/06/26 04:14:04;;;;;;;28.40;25.47;;;15.00;99.90;;;;;;5053771;28;20421;-69
2021/06/26 04:16:30;;;;;;;30.63;25.73;;;15.00;99.90;;;;;;5053690;28;20161;-69
2021/06/26 04:18:55;;;;;;;28.10;25.30;;;15.00;99.90;;;;;;5054248;28;20168;-69
2021/06/26 04:21:21;;;;;;;27.73;24.90;;;15.10;99.90;;;;;;5053653;28;20243;-70
2021/06/26 04:23:46;;;;;;;28.17;25.20;;;15.10;99.90;;;;;;5053640;28;20161;-70
2021/06/26 04:26:12;;;;;;;26.43;23.77;;;15.10;99.90;;;;;;5053501;28;20206;-69
2021/06/26 04:28:37;;;;;;;28.77;24.23;;;15.10;99.90;;;;;;5053627;28;20186;-69
2021/06/26 04:31:03;;;;;;;28.47;25.57;;;15.10;99.90;;;;;;5053444;28;20543;-70
2021/06/26 04:33:29;;;;;;;24.67;22.27;;;15.20;99.90;;;;;;5054008;28;20158;-69
2021/06/26 04:35:54;;;;;;;26.10;23.37;;;15.10;99.90;;;;;;5053624;28;20172;-70
2021/06/26 04:38:22;;;;;;;25.23;22.63;;;15.10;99.90;;;;;;5053490;28;20257;-69
2021/06/26 04:40:51;;;;;;;25.57;22.90;;;15.10;99.90;;;;;;5053694;28;20239;-70
2021/06/26 04:43:17;;;;;;;25.47;22.93;;;15.10;99.90;;;;;;5073249;28;20916;-69
2021/06/26 04:45:44;;;;;;;23.63;21.10;;;15.10;99.90;;;;;;5065434;28;20476;-70
2021/06/26 04:48:11;;;;;;;24.67;22.27;;;15.10;99.90;;;;;;5053310;28;20416;-70
2021/06/26 04:50:37;;;;;;;24.10;21.60;;;15.20;99.90;;;;;;5053500;28;20425;-70
2021/06/26 04:53:02;;;;;;;27.63;24.00;;;15.20;99.90;;;;;;5052957;28;20414;-70
2021/06/26 04:55:28;;;;;;;26.40;23.70;;;15.30;99.90;;;;;;5053181;28;20419;-70
2021/06/26 04:57:54;;;;;;;26.73;23.80;;;15.30;99.90;;;;;;5052935;28;20179;-69
2021/06/26 05:00:20;;;;;;;29.23;21.57;;;15.30;99.90;;;;;;5053271;28;20206;-70
2021/06/26 05:02:45;;;;;;;26.67;24.23;;;15.40;99.90;;;;;;5053627;28;20173;-70
2021/06/26 05:05:11;;;;;;;27.57;24.77;;;15.50;99.90;;;;;;5052627;28;20875;-70
2021/06/26 05:07:37;;;;;;;26.80;24.07;;;15.60;99.90;;;;;;5052965;28;20152;-69
2021/06/26 05:10:04;;;;;;;26.73;23.90;;;15.60;99.90;;;;;;5052647;28;20629;-70
2021/06/26 05:12:29;;;;;;;25.37;22.80;;;15.70;99.90;;;;;;5053007;28;20167;-69
2021/06/26 05:14:55;;;;;;;25.33;22.73;;;15.80;99.90;;;;;;5053188;28;20756;-70
2021/06/26 05:17:20;;;;;;;24.67;22.13;;;15.90;99.90;;;;;;5053449;28;20497;-70
2021/06/26 05:19:47;;;;;;;26.20;22.90;;;16.00;99.90;;;;;;5052647;28;20156;-69
2021/06/26 05:22:13;;;;;;;25.90;23.20;;;16.10;99.90;;;;;;5053016;28;20267;-70
2021/06/26 05:24:39;;;;;;;26.03;23.23;;;16.20;99.90;;;;;;5052626;28;20387;-70
2021/06/26 05:27:05;;;;;;;26.53;23.90;;;16.30;99.90;;;;;;5052594;28;20469;-69
2021/06/26 05:29:31;;;;;;;25.17;22.67;;;16.40;99.90;;;;;;5052918;28;20158;-69
2021/06/26 05:31:57;;;;;;;26.90;24.10;;;16.50;99.90;;;;;;5052895;28;20391;-69
2021/06/26 05:34:23;;;;;;;30.33;26.03;;;16.60;99.90;;;;;;5052598;28;20402;-70
2021/06/26 05:36:48;;;;;;;26.60;23.87;;;16.60;99.90;;;;;;5051788;28;20168;-70
2021/06/26 05:39:14;;;;;;;27.80;25.00;;;16.60;99.90;;;;;;5052158;28;20656;-70
2021/06/26 05:41:40;;;;;;;28.07;25.07;;;16.70;99.90;;;;;;5059711;28;20528;-69
2021/06/26 05:44:05;;;;;;;25.63;23.00;;;16.70;99.90;;;;;;5072540;28;20168;-69
2021/06/26 05:46:31;;;;;;;28.30;25.20;;;16.70;99.90;;;;;;5057591;28;20200;-70
2021/06/26 05:48:57;;;;;;;27.27;24.37;;;16.80;99.90;;;;;;5052373;28;20160;-69
2021/06/26 05:51:22;;;;;;;27.37;24.47;;;16.80;99.90;;;;;;5052077;28;20164;-70
2021/06/26 05:53:49;;;;;;;28.93;25.90;;;16.90;99.90;;;;;;5052150;28;20159;-70
2021/06/26 05:56:14;;;;;;;27.90;23.60;;;16.90;99.90;;;;;;5052054;28;20218;-69
2021/06/26 05:58:40;;;;;;;27.13;24.40;;;17.00;99.90;;;;;;5052365;28;20458;-70
2021/06/26 06:01:10;;;;;;;27.63;24.63;;;17.10;99.90;;;;;;5052041;28;20614;-69
2021/06/26 06:03:36;;;;;;;28.33;25.37;;;17.10;99.90;;;;;;5051810;28;20580;-69
2021/06/26 06:06:02;;;;;;;27.00;24.30;;;17.20;99.90;;;;;;5051670;28;20462;-69
2021/06/26 06:08:27;;;;;;;26.73;23.70;;;17.30;99.90;;;;;;5051805;28;20395;-69
2021/06/26 06:10:53;;;;;;;25.63;22.50;;;17.40;99.90;;;;;;5052131;28;20184;-69
2021/06/26 06:13:21;;;;;;;26.90;24.20;;;17.50;99.90;;;;;;5051282;28;20180;-70
2021/06/26 06:15:48;;;;;;;28.37;25.33;;;17.60;99.90;;;;;;5052085;28;20156;-69
2021/06/26 06:18:15;;;;;;;26.40;23.63;;;17.70;99.90;;;;;;5051835;28;20403;-69
2021/06/26 06:20:42;;;;;;;25.73;22.30;;;17.70;99.90;;;;;;5051873;28;20482;-69
2021/06/26 06:23:08;;;;;;;20.77;18.77;;;17.80;99.90;;;;;;5052054;28;20489;-69
2021/06/26 06:25:34;;;;;;;20.40;17.67;;;17.90;99.90;;;;;;5052798;28;20542;-69
2021/06/26 06:28:02;;;;;;;20.67;18.77;;;17.90;99.90;;;;;;5052032;28;20172;-70
2021/06/26 06:30:30;;;;;;;20.67;18.53;;;18.00;99.90;;;;;;5051619;28;20407;-69
2021/06/26 06:32:56;;;;;;;19.77;17.70;;;18.10;99.90;;;;;;5051645;28;20385;-69
2021/06/26 06:35:22;;;;;;;16.23;14.53;;;18.20;99.90;;;;;;5051656;28;20395;-69
2021/06/26 06:37:47;;;;;;;19.80;16.03;;;18.20;99.90;;;;;;5051647;28;20748;-69
2021/06/26 06:40:13;;;;;;;17.57;15.50;;;18.30;99.90;;;;;;5052188;28;20158;-70
2021/06/26 06:42:39;;;;;;;16.53;15.03;;;18.40;99.90;;;;;;5066806;28;20184;-70
2021/06/26 06:45:06;;;;;;;15.13;13.73;;;18.50;99.90;;;;;;5068849;28;20160;-70
2021/06/26 06:47:31;;;;;;;15.53;13.93;;;18.50;99.90;;;;;;5052138;28;20415;-69
2021/06/26 06:49:57;;;;;;;13.63;12.10;;;18.60;99.90;;;;;;5055455;28;20480;-69
2021/06/26 06:52:23;;;;;;;14.33;12.10;;;18.80;99.90;;;;;;5055591;28;20259;-69
2021/06/26 06:54:49;;;;;;;13.73;12.20;;;18.80;99.90;;;;;;5055496;28;20543;-69
2021/06/26 06:57:18;;;;;;;13.83;12.53;;;18.90;99.90;;;;;;5055576;28;20391;-70
2021/06/26 06:59:43;;;;;;;13.50;12.20;;;19.10;99.90;;;;;;5055475;28;20200;-70
2021/06/26 07:02:09;;;;;;;12.40;11.30;;;19.10;99.90;;;;;;5055181;28;20439;-69
2021/06/26 07:04:34;;;;;;;11.57;10.40;;;19.30;99.90;;;;;;5054830;28;20203;-70
2021/06/26 07:07:00;;;;;;;10.70;9.77;;;19.40;99.90;;;;;;5055980;28;20191;-69
2021/06/26 07:09:26;;;;;;;10.57;9.67;;;19.50;99.90;;;;;;5055654;28;20166;-70
2021/06/26 07:11:51;;;;;;;10.43;9.43;;;19.60;99.90;;;;;;5053923;28;20607;-69
2021/06/26 07:14:17;;;;;;;10.93;9.63;;;19.80;99.90;;;;;;5055471;28;20178;-70
2021/06/26 07:16:43;;;;;;;10.10;9.30;;;20.00;99.90;;;;;;5055018;28;20259;-69
2021/06/26 07:19:08;;;;;;;11.33;9.40;;;20.10;99.90;;;;;;5054945;28;20203;-69
2021/06/26 07:21:34;;;;;;;9.30;8.50;;;20.20;99.90;;;;;;5054683;28;20184;-69
2021/06/26 07:23:59;;;;;;;12.10;9.47;;;20.40;99.90;;;;;;5055101;28;20192;-69
2021/06/26 07:26:25;;;;;;;9.20;8.30;;;20.60;99.90;;;;;;5054842;28;20192;-69
2021/06/26 07:28:50;;;;;;;8.93;8.13;;;21.10;99.90;;;;;;5054712;28;20157;-69
2021/06/26 07:31:16;;;;;;;8.90;8.10;;;21.90;99.90;;;;;;5054549;28;20187;-70
2021/06/26 07:33:42;;;;;;;8.30;7.37;;;22.80;99.90;;;;;;5054295;28;20544;-69
2021/06/26 07:36:07;;;;;;;9.03;7.40;;;23.90;99.40;;;;;;5054566;28;20160;-70
2021/06/26 07:38:33;;;;;;;7.07;6.47;;;24.80;95.00;;;;;;5054459;28;20187;-70
2021/06/26 07:40:58;;;;;;;6.13;5.63;;;25.60;90.10;;;;;;5055688;28;20182;-70
2021/06/26 07:43:25;;;;;;;7.53;6.23;;;26.50;84.10;;;;;;5073714;28;20624;-70
2021/06/26 07:45:51;;;;;;;7.53;6.83;;;27.60;81.90;;;;;;5065431;28;20196;-70
2021/06/26 07:48:17;;;;;;;6.73;6.23;;;28.70;70.00;;;;;;5054304;28;20399;-70
2021/06/26 07:50:42;;;;;;;7.37;6.63;;;29.60;67.00;;;;;;5054385;28;20872;-71
2021/06/26 07:53:08;;;;;;;6.70;6.10;;;30.40;58.20;;;;;;5054487;28;20637;-71
2021/06/26 07:55:34;;;;;;;5.97;5.43;;;31.10;56.30;;;;;;5054111;28;20183;-71
2021/06/26 07:57:59;;;;;;;5.87;5.37;;;31.90;54.60;;;;;;5054005;28;20156;-71
2021/06/26 08:00:25;;;;;;;6.80;5.97;;;32.70;51.00;;;;;;5054145;28;20927;-71
2021/06/26 08:02:51;;;;;;;6.83;6.27;;;33.40;50.40;;;;;;5054079;28;20646;-71
2021/06/26 08:05:16;;;;;;;6.43;5.70;;;34.00;47.30;;;;;;5053851;28;20469;-71
2021/06/26 08:07:42;;;;;;;6.53;5.93;;;34.50;44.90;;;;;;5054265;28;20194;-71
2021/06/26 08:10:08;;;;;;;6.10;5.47;;;34.80;44.40;;;;;;5053982;28;20234;-71
2021/06/26 08:12:34;;;;;;;6.47;5.50;;;35.10;42.90;;;;;;5052512;28;20180;-71
2021/06/26 08:15:01;;;;;;;5.73;5.33;;;35.30;40.80;;;;;;5053871;28;20391;-72
2021/06/26 08:17:27;;;;;;;7.10;6.50;;;35.80;41.20;;;;;;5053818;28;20178;-72
2021/06/26 08:19:52;;;;;;;5.93;5.50;;;36.40;39.70;;;;;;5053821;28;20504;-72
2021/06/26 08:22:18;;;;;;;5.43;5.03;;;37.20;39.20;;;;;;5054386;28;20258;-72
2021/06/26 08:24:44;;;;;;;8.93;5.90;;;37.70;36.70;;;;;;5053712;28;20178;-72
2021/06/26 08:27:10;;;;;;;6.20;5.20;;;38.30;35.90;;;;;;5053579;28;20183;-71
2021/06/26 08:29:35;;;;;;;5.30;4.90;;;38.60;33.30;;;;;;5053696;28;20185;-71
2021/06/26 08:32:02;;;;;;;6.20;4.90;;;39.00;34.30;;;;;;5053581;28;20159;-71
2021/06/26 08:34:27;;;;;;;5.13;4.60;;;39.50;32.70;;;;;;5053558;28;20669;-71
2021/06/26 08:36:53;;;;;;;4.70;4.30;;;40.20;32.70;;;;;;5053663;28;20542;-71
2021/06/26 08:39:20;;;;;;;4.60;4.30;;;41.00;30.50;;;;;;5053729;28;20191;-71
2021/06/26 08:41:48;;;;;;;4.33;4.03;;;41.30;29.10;;;;;;5060185;28;20171;-71
2021/06/26 08:44:14;;;;;;;4.47;4.10;;;41.90;29.00;;;;;;5073520;28;20160;-71
2021/06/26 08:46:43;;;;;;;5.23;4.93;;;42.40;28.60;;;;;;5053212;28;20602;-71
2021/06/26 08:49:09;;;;;;;12.47;5.87;;;42.90;27.30;;;;;;5053258;28;20188;-71
2021/06/26 08:51:35;;;;;;;4.68;4.28;;;43.00;26.60;;;;;;5053344;28;20313;-71
2021/06/26 08:54:01;;;;;;;4.90;4.37;;;42.70;25.90;;;;;;5053273;28;20242;-71
2021/06/26 08:56:27;;;;;;;4.50;4.10;;;42.70;27.10;;;;;;5053388;28;20259;-71
2021/06/26 08:58:52;;;;;;;5.22;4.72;;;43.20;26.40;;;;;;5053140;28;20183;-71
2021/06/26 09:01:18;;;;;;;5.57;5.13;;;43.30;25.00;;;;;;5053047;28;20524;-71
2021/06/26 09:03:44;;;;;;;4.43;4.03;;;43.50;25.40;;;;;;5052222;28;20202;-71
2021/06/26 09:06:10;;;;;;;5.10;4.70;;;43.50;25.00;;;;;;5053438;28;20299;-72
2021/06/26 09:08:35;;;;;;;4.55;4.15;;;43.80;25.10;;;;;;5052980;28;20222;-71
2021/06/26 09:11:01;;;;;;;4.40;4.07;;;43.50;25.30;;;;;;5051460;28;20170;-72
2021/06/26 09:13:32;;;;;;;5.65;5.25;;;43.00;24.20;;;;;;5052092;28;20164;-71
2021/06/26 09:18:47;;;;;;;5.65;5.25;;;43.00;25.20;;;;;;5066415;28;20953;-71
2021/06/26 09:21:31;;;;;;;5.10;4.70;;;42.90;26.00;;;;;;5049561;28;20163;-71
2021/06/26 09:24:02;;;;;;;4.85;4.45;;;43.00;26.10;;;;;;5049408;28;20156;-71
2021/06/26 09:26:28;;;;;;;4.88;4.47;;;42.30;26.60;;;;;;5049535;28;20565;-71
2021/06/26 09:28:53;;;;;;;4.70;4.40;;;41.50;26.50;;;;;;5049452;28;20160;-71
2021/06/26 09:31:21;;;;;;;4.80;4.50;;;40.60;28.50;;;;;;5049241;28;20154;-71
2021/06/26 09:33:56;;;;;;;4.93;4.63;;;40.50;26.90;;;;;;5049310;28;20152;-71
2021/06/26 09:36:25;;;;;;;5.00;4.43;;;40.30;26.20;;;;;;5049187;28;20537;-72
2021/06/26 09:41:34;;;;;;;5.20;4.90;;;40.20;27.20;;;;;;5049429;28;20528;-71
2021/06/26 09:44:08;;;;;;;4.95;4.65;;;38.90;27.70;;;;;;5049846;28;20160;-71
2021/06/26 09:46:44;;;;;;;4.65;4.25;;;38.70;29.50;;;;;;5049185;28;20167;-71
2021/06/26 09:49:10;;;;;;;4.90;4.50;;;37.80;29.50;;;;;;5049617;28;20520;-71
2021/06/26 09:51:35;;;;;;;4.80;4.50;;;37.40;31.30;;;;;;5049149;28;20170;-70
2021/06/26 09:54:04;;;;;;;5.43;4.53;;;37.30;30.00;;;;;;5048398;28;20241;-71
2021/06/26 09:59:16;;;;;;;5.60;5.00;;;37.00;30.70;;;;;;5069219;28;20633;-71
2021/06/26 10:01:44;;;;;;;5.40;5.00;;;36.10;31.10;;;;;;5065683;28;20410;-71
2021/06/26 10:04:15;;;;;;;5.47;5.07;;;35.90;32.80;;;;;;5049440;28;20391;-71
2021/06/26 10:06:43;;;;;;;5.90;5.37;;;35.70;33.40;;;;;;5049291;28;20386;-71
2021/06/26 10:09:09;;;;;;;5.10;4.77;;;35.70;33.00;;;;;;5049294;28;20422;-71
2021/06/26 10:11:36;;;;;;;5.50;5.10;;;35.60;32.20;;;;;;5067730;28;20466;-70
2021/06/26 10:14:05;;;;;;;5.70;5.20;;;35.40;33.10;;;;;;5069069;28;20493;-70
2021/06/26 10:16:32;;;;;;;4.90;4.43;;;34.70;32.60;;;;;;5069211;28;20473;-71
2021/06/26 10:19:00;;;;;;;5.90;5.50;;;34.50;35.50;;;;;;5068974;28;20503;-70
2021/06/26 10:21:27;;;;;;;5.67;5.20;;;34.10;35.70;;;;;;5069133;28;20386;-70
2021/06/26 10:23:55;;;;;;;5.37;4.87;;;33.80;33.10;;;;;;5069365;28;20382;-70
2021/06/26 10:26:22;;;;;;;5.87;4.73;;;33.60;34.80;;;;;;5068065;28;20405;-70
2021/06/26 10:28:50;;;;;;;6.63;6.03;;;33.30;36.50;;;;;;5048787;28;20442;-70
2021/06/26 10:31:26;;;;;;;6.17;5.53;;;33.20;39.00;;;;;;5049041;28;20417;-70
2021/06/26 10:33:52;;;;;;;6.33;5.80;;;32.80;37.80;;;;;;5048903;28;20895;-70
2021/06/26 10:36:17;;;;;;;6.20;5.70;;;32.50;40.00;;;;;;5048906;28;20395;-70
2021/06/26 10:38:45;;;;;;;6.03;5.53;;;32.20;39.60;;;;;;5048701;28;20176;-70
2021/06/26 10:41:20;;;;;;;7.00;6.40;;;31.90;39.30;;;;;;5052286;28;20655;-70
2021/06/26 10:44:05;;;;;;;10.30;6.50;;;31.60;40.50;;;;;;5064702;28;20412;-70
2021/06/26 10:46:30;;;;;;;7.17;6.57;;;31.40;41.00;;;;;;5062601;28;20409;-70
2021/06/26 10:49:02;;;;;;;7.27;6.53;;;31.10;39.00;;;;;;5068425;28;20396;-69
2021/06/26 10:51:36;;;;;;;6.00;5.50;;;30.80;38.20;;;;;;5068463;28;20229;-69
2021/06/26 10:56:49;;;;;;;6.13;5.67;;;30.40;40.00;;;;;;5069484;28;20501;-71
2021/06/26 10:59:17;;;;;;;6.70;5.63;;;30.10;42.90;;;;;;5069347;28;20531;-71
2021/06/26 11:02:00;;;;;;;6.47;5.87;;;29.80;40.20;;;;;;5057779;28;20406;-71
2021/06/26 11:04:26;;;;;;;6.83;6.30;;;29.60;42.90;;;;;;5049411;28;20398;-71
2021/06/26 11:07:11;;;;;;;5.73;5.33;;;29.50;43.30;;;;;;5049481;28;20718;-71
2021/06/26 11:09:42;;;;;;;5.83;5.40;;;29.50;44.80;;;;;;5049062;28;20896;-71
2021/06/26 11:12:12;;;;;;;5.73;5.23;;;29.10;41.20;;;;;;5049171;28;20466;-71
2021/06/26 11:14:48;;;;;;;7.00;6.20;;;29.00;44.50;;;;;;5049656;28;20525;-71
2021/06/26 11:17:14;;;;;;;6.13;5.63;;;28.90;42.30;;;;;;5049316;28;20383;-71
2021/06/26 11:19:39;;;;;;;7.77;6.00;;;28.70;41.80;;;;;;5049576;28;20410;-71
2021/06/26 11:22:05;;;;;;;5.57;5.13;;;28.40;41.20;;;;;;5049350;28;20175;-71
2021/06/26 11:24:35;;;;;;;5.87;5.37;;;28.20;41.30;;;;;;5048785;28;20210;-71
2021/06/26 11:27:01;;;;;;;6.20;5.70;;;28.10;42.60;;;;;;5048801;28;20164;-71
2021/06/26 11:32:20;;;;;;;6.70;6.10;;;28.00;46.70;;;;;;5069419;28;20504;-72
2021/06/26 11:35:14;;;;;;;6.77;6.17;;;28.00;47.80;;;;;;5065777;28;20406;-72
2021/06/26 11:40:21;;;;;;;6.73;6.13;;;28.00;47.70;;;;;;5089599;27;20519;-72
2021/06/26 11:50:51;;;;;;;5.70;5.30;;;28.00;45.80;;;;;;5069402;28;20524;-71
2021/06/26 11:53:20;;;;;;;5.73;5.33;;;27.70;48.20;;;;;;5053235;28;20789;-71
2021/06/26 11:55:55;;;;;;;6.70;6.10;;;27.80;46.60;;;;;;5049309;28;20758;-71
2021/06/26 11:58:21;;;;;;;11.73;7.37;;;27.70;46.80;;;;;;5049350;28;20441;-71
2021/06/26 12:01:01;;;;;;;8.13;6.47;;;27.60;45.90;;;;;;5049180;28;20810;-71
2021/06/26 12:03:29;;;;;;;7.50;6.20;;;27.50;44.80;;;;;;5049146;28;20411;-71
2021/06/26 12:06:15;;;;;;;6.67;6.07;;;27.50;46.20;;;;;;5049038;28;20394;-71
2021/06/26 12:14:03;;;;;;;9.67;6.37;;;27.60;45.70;;;;;;5069519;28;20512;-71
2021/06/26 12:16:32;;;;;;;5.80;5.40;;;27.80;45.80;;;;;;5069424;28;20396;-71
2021/06/26 12:18:59;;;;;;;6.13;5.57;;;27.80;44.00;;;;;;5069639;28;20389;-71
2021/06/26 12:21:27;;;;;;;6.40;5.90;;;27.70;45.10;;;;;;5069258;28;20477;-71
2021/06/26 12:23:55;;;;;;;6.40;5.90;;;27.70;44.80;;;;;;5069106;28;20390;-71
2021/06/26 12:26:24;;;;;;;6.00;5.50;;;27.70;46.10;;;;;;5061001;28;20415;-71
2021/06/26 12:28:51;;;;;;;9.80;6.93;;;27.70;46.30;;;;;;5049582;28;20494;-71
2021/06/26 12:31:18;;;;;;;9.03;8.10;;;27.70;47.30;;;;;;5049691;28;20406;-71
2021/06/26 12:33:47;;;;;;;8.00;7.20;;;27.60;46.90;;;;;;5049028;28;20543;-71
2021/06/26 12:36:16;;;;;;;7.40;6.80;;;27.50;48.30;;;;;;5049350;28;20584;-71
2021/06/26 12:38:43;;;;;;;7.50;6.80;;;27.40;49.20;;;;;;5048962;28;20456;-71
2021/06/26 12:44:02;;;;;;;7.03;6.50;;;27.40;49.30;;;;;;5055353;28;20746;-72
2021/06/26 12:46:30;;;;;;;8.03;7.43;;;27.40;47.90;;;;;;5049171;28;20819;-72
2021/06/26 12:49:00;;;;;;;8.43;7.57;;;27.30;48.70;;;;;;5049406;28;20426;-71
2021/06/26 12:51:39;;;;;;;9.77;8.87;;;27.20;49.10;;;;;;5049437;28;20394;-71
2021/06/26 12:54:10;;;;;;;7.60;7.00;;;27.10;49.30;;;;;;5049703;28;20398;-71
2021/06/26 12:56:37;;;;;;;8.60;7.80;;;27.00;49.50;;;;;;5049635;28;20380;-72
2021/06/26 12:59:13;;;;;;;8.53;7.93;;;26.90;49.20;;;;;;5041477;28;20622;-71
2021/06/26 13:04:24;;;;;;;8.40;7.50;;;26.70;49.10;;;;;;5069248;28;21048;-70
2021/06/26 13:06:55;;;;;;;7.47;6.87;;;26.60;49.10;;;;;;5069396;28;20433;-70
2021/06/26 13:09:33;;;;;;;8.50;7.60;;;26.50;49.90;;;;;;5069645;28;20386;-70